BCD weather

Bacolod-Silay Airport
Bacolod City, Negroe Occidental Province, Philippines

Public forecast

Using degrees Celsius for public forecast. Weather courtesy of forecast.io.

Closest aviation weather report (METAR) to Bacolod-Silay Airport

Closest report is Mactan Cebu International Airport, 63.5 nm (117.6 km) ESE. Retrieved 2019/10/21 14:00 UTC (34 minutes ago):

RPVM 211400Z 34004KT 9999 FEW020 BKN250 28/23 Q1010 RMK A2983

Closest aviation forecast (TAF) to Bacolod-Silay Airport

Closest forecast is Mactan Cebu International Airport, 63.5 nm (117.6 km) ESE. Retrieved 2019/10/21 12:00 UTC (3 hours ago):

TAF RPVM 211100Z 2112/2218 02006KT 9999 FEW020 BKN300 TEMP0 2112/2118 05004KT 9000 TS SCT018CB OVC080 TEMPO 2118/2124 VRB02KT FEW018CB FEW020 SCT100